Time;durP1;ratioP1;P1;durP2;ratioP2;P2;SDS_P1;SDS_P2;PMS_P1;PMS_P2;Temp;Humidity;BMP_temperature;BMP_pressure;BME280_temperature;BME280_humidity;BME280_pressure;Samples;Min_cycle;Max_cycle;Signal;HPM_P1;HPM_P2
2021/11/15 00:01:15;;;;;;;116.40;66.60;;;;;;;-140.05;100.00;61859.38;5020069;28;20231;-60
2021/11/15 00:03:45;;;;;;;116.78;66.53;;;;;;;-140.05;100.00;61859.38;5011390;28;20278;-59
2021/11/15 00:06:12;;;;;;;113.07;64.95;;;;;;;-140.05;100.00;61859.38;5019270;28;20232;-59
2021/11/15 00:08:39;;;;;;;115.25;66.22;;;;;;;-140.05;100.00;61859.38;5024382;28;20741;-60
2021/11/15 00:11:07;;;;;;;116.07;65.45;;;;;;;-140.05;100.00;61859.38;5022951;28;20210;-61
2021/11/15 00:13:34;;;;;;;122.93;69.00;;;;;;;-140.05;100.00;61859.38;5031811;28;20193;-61
2021/11/15 00:16:02;;;;;;;118.63;65.28;;;;;;;-140.05;100.00;61859.38;5032270;28;20204;-60
2021/11/15 00:18:29;;;;;;;112.28;62.63;;;;;;;-140.05;100.00;61859.38;5032016;28;20280;-60
2021/11/15 00:20:57;;;;;;;115.97;63.92;;;;;;;-140.05;100.00;61859.38;5031961;28;20718;-60
2021/11/15 00:23:24;;;;;;;117.95;63.05;;;;;;;-140.05;100.00;61859.38;5031396;28;20234;-60
2021/11/15 00:25:51;;;;;;;114.82;63.08;;;;;;;-140.05;100.00;61859.38;5031012;28;20220;-61
2021/11/15 00:28:18;;;;;;;116.95;64.45;;;;;;;-140.05;100.00;61859.38;5031962;28;20197;-60
2021/11/15 00:30:44;;;;;;;116.13;66.13;;;;;;;-140.05;100.00;61859.38;5031628;28;20231;-61
2021/11/15 00:33:11;;;;;;;118.55;65.68;;;;;;;-140.05;100.00;61859.38;5031902;28;20660;-59
2021/11/15 00:35:38;;;;;;;118.68;63.88;;;;;;;-140.05;100.00;61859.38;5031616;28;20185;-60
2021/11/15 00:38:05;;;;;;;121.65;64.80;;;;;;;-140.05;100.00;61859.38;5031702;28;20698;-61
2021/11/15 00:40:32;;;;;;;113.68;63.95;;;;;;;-140.05;100.00;61859.38;5028859;28;20201;-61
2021/11/15 00:43:00;;;;;;;111.78;62.10;;;;;;;-140.05;100.00;61859.38;5022298;28;20287;-60
2021/11/15 00:45:28;;;;;;;118.15;65.55;;;;;;;-140.05;100.00;61859.38;5018739;28;20340;-60
2021/11/15 00:47:55;;;;;;;110.03;63.92;;;;;;;-140.05;100.00;61859.38;5020651;28;20244;-60
2021/11/15 00:50:23;;;;;;;113.18;63.75;;;;;;;-140.05;100.00;61859.38;5030842;28;20197;-61
2021/11/15 00:52:50;;;;;;;118.13;64.32;;;;;;;-140.05;100.00;61859.38;5026797;28;20201;-60
2021/11/15 00:55:20;;;;;;;119.32;66.63;;;;;;;-140.05;100.00;61859.38;5030951;28;20205;-60
2021/11/15 00:57:47;;;;;;;117.13;64.70;;;;;;;-140.05;100.00;61859.38;5017013;28;20212;-59
2021/11/15 01:00:27;;;;;;;111.43;64.28;;;;;;;-140.05;100.00;61859.38;5018048;28;20211;-60
2021/11/15 01:02:56;;;;;;;106.53;61.00;;;;;;;-140.05;100.00;61859.38;5017580;28;20209;-61
2021/11/15 01:05:25;;;;;;;110.25;60.22;;;;;;;-140.05;100.00;61859.38;5021130;28;20221;-60
2021/11/15 01:07:52;;;;;;;108.07;61.45;;;;;;;-140.05;100.00;61859.38;5021858;28;20232;-60
2021/11/15 01:10:21;;;;;;;109.53;61.72;;;;;;;-140.05;100.00;61859.38;5030820;28;20185;-60
2021/11/15 01:12:49;;;;;;;115.95;63.38;;;;;;;-140.05;100.00;61859.38;5028871;28;20197;-60
2021/11/15 01:15:20;;;;;;;106.50;60.10;;;;;;;-140.05;100.00;61859.38;5020932;28;20224;-60
2021/11/15 01:17:49;;;;;;;110.97;61.08;;;;;;;-140.05;100.00;61859.38;5030870;28;20722;-60
2021/11/15 01:20:20;;;;;;;108.78;61.00;;;;;;;-140.05;100.00;61859.38;5030646;28;20189;-59
2021/11/15 01:22:48;;;;;;;108.13;61.53;;;;;;;-140.05;100.00;61859.38;5030672;28;20216;-60
2021/11/15 01:25:15;;;;;;;100.45;57.90;;;;;;;-140.05;100.00;61859.38;5030852;28;20213;-60
2021/11/15 01:27:42;;;;;;;108.57;59.35;;;;;;;-140.05;100.00;61859.38;5029621;28;20189;-59
2021/11/15 01:30:12;;;;;;;106.57;59.72;;;;;;;-140.05;100.00;61859.38;5034519;28;20201;-60
2021/11/15 01:32:41;;;;;;;107.72;58.67;;;;;;;-140.05;100.00;61859.38;5032352;28;20198;-60
2021/11/15 01:35:09;;;;;;;108.45;58.70;;;;;;;-140.05;100.00;61859.38;5033190;28;20196;-59
2021/11/15 01:37:37;;;;;;;107.57;59.70;;;;;;;-140.05;100.00;61859.38;5030539;28;20648;-65
2021/11/15 01:40:07;;;;;;;100.95;56.47;;;;;;;-140.05;100.00;61859.38;5030574;28;20201;-60
2021/11/15 01:42:34;;;;;;;105.68;56.45;;;;;;;-140.05;100.00;61859.38;5016473;28;20295;-59
2021/11/15 01:45:05;;;;;;;99.28;56.13;;;;;;;-140.05;100.00;61859.38;5019589;28;20294;-60
2021/11/15 01:47:32;;;;;;;102.30;56.60;;;;;;;-140.05;100.00;61859.38;5020794;28;20197;-62
2021/11/15 01:49:59;;;;;;;98.85;55.33;;;;;;;-140.05;100.00;61859.38;5020693;28;20197;-60
2021/11/15 01:52:26;;;;;;;98.00;55.58;;;;;;;-140.05;100.00;61859.38;5016181;28;20205;-60
2021/11/15 01:54:53;;;;;;;99.68;56.35;;;;;;;-140.05;100.00;61859.38;5013675;28;20205;-61
2021/11/15 01:57:20;;;;;;;106.68;57.35;;;;;;;-140.05;100.00;61859.38;5027243;28;20540;-61
2021/11/15 01:59:48;;;;;;;97.70;55.72;;;;;;;-140.05;100.00;61859.38;5015122;28;20201;-60
2021/11/15 02:02:15;;;;;;;97.78;54.03;;;;;;;-140.05;100.00;61859.38;5018626;28;20193;-60
2021/11/15 02:04:42;;;;;;;98.35;56.13;;;;;;;-140.05;100.00;61859.38;5020231;28;20193;-58
2021/11/15 02:07:09;;;;;;;98.88;55.10;;;;;;;-140.05;100.00;61859.38;5020791;28;20299;-59
2021/11/15 02:09:36;;;;;;;95.68;54.17;;;;;;;-140.05;100.00;61859.38;5029339;28;20216;-60
2021/11/15 02:12:03;;;;;;;97.22;54.70;;;;;;;-140.05;100.00;61859.38;5029345;28;20201;-61
2021/11/15 02:14:30;;;;;;;94.97;55.05;;;;;;;-140.05;100.00;61859.38;5029347;28;20240;-61
2021/11/15 02:16:57;;;;;;;92.53;55.22;;;;;;;-140.05;100.00;61859.38;5029596;28;20215;-61
2021/11/15 02:19:44;;;;;;;90.45;53.47;;;;;;;-140.05;100.00;61859.38;5018635;28;20202;-59
2021/11/15 02:22:11;;;;;;;92.70;52.60;;;;;;;-140.05;100.00;61859.38;5015954;28;20586;-60
2021/11/15 02:24:38;;;;;;;92.80;53.65;;;;;;;-140.05;100.00;61859.38;5029239;28;20569;-60
2021/11/15 02:27:06;;;;;;;88.10;53.03;;;;;;;-140.05;100.00;61859.38;5018916;28;21130;-60
2021/11/15 02:29:33;;;;;;;89.45;53.80;;;;;;;-140.05;100.00;61859.38;5018287;28;20208;-59
2021/11/15 02:32:01;;;;;;;90.17;53.13;;;;;;;-140.05;100.00;61859.38;5019759;28;20189;-60
2021/11/15 02:34:27;;;;;;;88.68;52.72;;;;;;;-140.05;100.00;61859.38;5017938;28;20502;-61
2021/11/15 02:36:55;;;;;;;88.10;52.73;;;;;;;-140.05;100.00;61859.38;5017057;28;20292;-61
2021/11/15 02:39:22;;;;;;;92.63;53.83;;;;;;;-140.05;100.00;61859.38;5026251;28;20428;-60
2021/11/15 02:41:49;;;;;;;87.30;52.70;;;;;;;-140.05;100.00;61859.38;5028813;28;20458;-60
2021/11/15 02:44:16;;;;;;;94.13;54.00;;;;;;;-140.05;100.00;61859.38;5029099;28;20284;-63
2021/11/15 02:46:43;;;;;;;86.35;52.83;;;;;;;-140.05;100.00;61859.38;5029131;28;20480;-60
2021/11/15 02:49:10;;;;;;;86.57;52.90;;;;;;;-140.05;100.00;61859.38;5029282;28;20190;-61
2021/11/15 02:51:37;;;;;;;88.40;52.08;;;;;;;-140.05;100.00;61859.38;5028886;28;20219;-59
2021/11/15 02:54:04;;;;;;;95.53;53.27;;;;;;;-140.05;100.00;61859.38;5029097;28;20748;-60
2021/11/15 02:56:31;;;;;;;87.67;52.87;;;;;;;-140.05;100.00;61859.38;5019621;28;20530;-60
2021/11/15 02:58:58;;;;;;;89.25;52.80;;;;;;;-140.05;100.00;61859.38;5028541;28;20442;-61
2021/11/15 03:01:25;;;;;;;86.30;52.72;;;;;;;-140.05;100.00;61859.38;5026649;28;20201;-61
2021/11/15 03:03:52;;;;;;;93.32;56.42;;;;;;;-140.05;100.00;61859.38;5029646;28;20197;-61
2021/11/15 03:06:19;;;;;;;94.03;57.60;;;;;;;-140.05;100.00;61859.38;5032271;28;20220;-59
2021/11/15 03:08:46;;;;;;;101.57;59.47;;;;;;;-140.05;100.00;61859.38;5033507;28;20471;-60
2021/11/15 03:11:13;;;;;;;101.73;60.43;;;;;;;-140.05;100.00;61859.38;5034642;28;20268;-62
2021/11/15 03:13:43;;;;;;;107.07;61.00;;;;;;;-140.05;100.00;61859.38;5033493;28;20539;-61
2021/11/15 03:16:10;;;;;;;101.20;58.58;;;;;;;-140.05;100.00;61859.38;5034034;28;20456;-60
2021/11/15 03:18:39;;;;;;;105.55;61.20;;;;;;;-140.05;100.00;61859.38;5018944;28;20193;-60
2021/11/15 03:21:10;;;;;;;107.90;60.50;;;;;;;-140.05;100.00;61859.38;5032915;28;20193;-59
2021/11/15 03:23:41;;;;;;;100.35;59.33;;;;;;;-140.05;100.00;61859.38;5032429;28;20201;-60
2021/11/15 03:26:08;;;;;;;107.50;59.37;;;;;;;-140.05;100.00;61859.38;5022925;28;20991;-60
2021/11/15 03:28:43;;;;;;;111.30;61.83;;;;;;;-140.05;100.00;61859.38;5025713;28;20447;-60
2021/11/15 03:31:18;;;;;;;111.72;62.10;;;;;;;-140.05;100.00;61859.38;5021468;28;20230;-60
2021/11/15 03:33:48;;;;;;;104.93;61.43;;;;;;;-140.05;100.00;61859.38;5020917;28;20216;-60
2021/11/15 03:36:17;;;;;;;104.05;57.88;;;;;;;-140.05;100.00;61859.38;5020596;28;20448;-60
2021/11/15 03:38:45;;;;;;;117.95;67.07;;;;;;;-140.05;100.00;61859.38;5032097;28;20208;-59
2021/11/15 03:41:12;;;;;;;107.43;60.70;;;;;;;-140.05;100.00;61859.38;5032574;28;20201;-61
2021/11/15 03:43:39;;;;;;;97.43;58.63;;;;;;;-140.05;100.00;61859.38;5031843;28;20216;-61
2021/11/15 03:46:07;;;;;;;107.40;59.60;;;;;;;-140.05;100.00;61859.38;5020443;28;20240;-59
2021/11/15 03:48:34;;;;;;;95.80;55.75;;;;;;;-140.05;100.00;61859.38;5021562;28;20189;-60
2021/11/15 03:51:01;;;;;;;100.85;55.13;;;;;;;-140.05;100.00;61859.38;5023166;28;20192;-59
2021/11/15 03:53:34;;;;;;;68.95;41.58;;;;;;;-140.05;100.00;61859.38;5020055;28;20193;-60
2021/11/15 03:56:02;;;;;;;69.43;40.33;;;;;;;-140.05;100.00;61859.38;5019599;28;20204;-61
2021/11/15 03:58:29;;;;;;;63.70;39.22;;;;;;;-140.05;100.00;61859.38;5038213;28;20227;-61
2021/11/15 04:00:58;;;;;;;69.97;41.55;;;;;;;-140.05;100.00;61859.38;5032284;28;20702;-60
2021/11/15 04:03:33;;;;;;;70.95;42.33;;;;;;;-140.05;100.00;61859.38;5032340;28;20658;-60
2021/11/15 04:06:27;;;;;;;74.35;44.78;;;;;;;-140.05;100.00;61859.38;5032370;28;20315;-59
2021/11/15 04:09:00;;;;;;;69.93;42.83;;;;;;;-140.05;100.00;61859.38;5032386;28;20282;-60
2021/11/15 04:11:31;;;;;;;75.63;43.78;;;;;;;-140.05;100.00;61859.38;5031807;28;20273;-59
2021/11/15 04:14:03;;;;;;;77.90;47.38;;;;;;;-140.05;100.00;61859.38;5032454;28;20193;-58
2021/11/15 04:16:30;;;;;;;88.68;52.10;;;;;;;-140.05;100.00;61859.38;5031211;28;20211;-59
2021/11/15 04:19:00;;;;;;;77.97;48.50;;;;;;;-140.05;100.00;61859.38;5032091;28;20661;-61
2021/11/15 04:21:29;;;;;;;78.22;47.28;;;;;;;-140.05;100.00;61859.38;5031440;28;20606;-60
2021/11/15 04:23:56;;;;;;;71.88;44.28;;;;;;;-140.05;100.00;61859.38;5032177;28;20192;-60
2021/11/15 04:26:23;;;;;;;66.10;38.28;;;;;;;-140.05;100.00;61859.38;5022536;28;20214;-60
2021/11/15 04:28:51;;;;;;;59.97;36.65;;;;;;;-140.05;100.00;61859.38;5018432;28;20201;-60
2021/11/15 04:31:18;;;;;;;52.47;32.65;;;;;;;-140.05;100.00;61859.38;5020636;28;20211;-61
2021/11/15 04:33:45;;;;;;;59.95;35.17;;;;;;;-140.05;100.00;61859.38;5021378;28;20239;-60
2021/11/15 04:36:12;;;;;;;66.88;39.88;;;;;;;-140.05;100.00;61859.38;5021202;28;20203;-59
2021/11/15 04:38:39;;;;;;;62.85;37.80;;;;;;;-140.05;100.00;61859.38;5031361;28;20228;-60
2021/11/15 04:41:06;;;;;;;64.45;37.08;;;;;;;-140.05;100.00;61859.38;5031485;28;20694;-60
2021/11/15 04:43:33;;;;;;;60.53;37.70;;;;;;;-140.05;100.00;61859.38;5017116;28;20251;-61
2021/11/15 04:46:00;;;;;;;59.43;35.60;;;;;;;-140.05;100.00;61859.38;5031161;28;20467;-60
2021/11/15 04:48:27;;;;;;;62.65;37.95;;;;;;;-140.05;100.00;61859.38;5031146;28;20511;-60
2021/11/15 04:50:54;;;;;;;60.75;36.85;;;;;;;-140.05;100.00;61859.38;5032151;28;20648;-61
2021/11/15 04:53:22;;;;;;;60.00;34.63;;;;;;;-140.05;100.00;61859.38;5032240;28;20284;-60
2021/11/15 04:55:49;;;;;;;57.22;35.13;;;;;;;-140.05;100.00;61859.38;5032763;28;20212;-61
2021/11/15 04:58:16;;;;;;;63.35;36.05;;;;;;;-140.05;100.00;61859.38;5026249;28;20304;-61
2021/11/15 05:00:43;;;;;;;58.55;35.72;;;;;;;-140.05;100.00;61859.38;5022676;28;20209;-62
2021/11/15 05:03:11;;;;;;;64.20;36.05;;;;;;;-140.05;100.00;61859.38;5031332;28;20205;-60
2021/11/15 05:05:38;;;;;;;63.30;36.45;;;;;;;-140.05;100.00;61859.38;5031212;28;20189;-60
2021/11/15 05:08:05;;;;;;;58.35;35.10;;;;;;;-140.05;100.00;61859.38;5030058;28;20233;-61
2021/11/15 05:10:32;;;;;;;61.58;36.65;;;;;;;-140.05;100.00;61859.38;5030868;28;20272;-61
2021/11/15 05:13:01;;;;;;;64.65;37.80;;;;;;;-140.05;100.00;61859.38;5030365;28;20196;-60
2021/11/15 05:15:29;;;;;;;65.60;38.53;;;;;;;-140.05;100.00;61859.38;5030727;28;20204;-60
2021/11/15 05:17:57;;;;;;;64.07;38.28;;;;;;;-140.05;100.00;61859.38;5030667;28;20196;-60
2021/11/15 05:20:24;;;;;;;71.68;41.63;;;;;;;-140.05;100.00;61859.38;5030715;28;20743;-60
2021/11/15 05:22:51;;;;;;;73.28;43.25;;;;;;;-140.05;100.00;61859.38;5030406;28;20565;-59
2021/11/15 05:25:19;;;;;;;73.70;43.90;;;;;;;-140.05;100.00;61859.38;5030736;28;20207;-59
2021/11/15 05:27:47;;;;;;;88.78;49.60;;;;;;;-140.05;100.00;61859.38;5029335;28;20597;-62
2021/11/15 05:30:16;;;;;;;90.05;52.83;;;;;;;-140.05;100.00;61859.38;5017843;28;20197;-60
2021/11/15 05:32:44;;;;;;;104.95;60.80;;;;;;;-140.05;100.00;61859.38;5029592;28;20193;-60
2021/11/15 05:35:11;;;;;;;103.70;61.30;;;;;;;-140.05;100.00;61859.38;5027715;28;20296;-59
2021/11/15 05:37:39;;;;;;;116.80;62.40;;;;;;;-140.05;100.00;61859.38;5018443;28;20236;-59
2021/11/15 05:40:07;;;;;;;111.22;63.50;;;;;;;-140.05;100.00;61859.38;5019262;28;20201;-59
2021/11/15 05:42:34;;;;;;;102.57;60.92;;;;;;;-140.05;100.00;61859.38;5029359;28;20197;-60
2021/11/15 05:45:03;;;;;;;110.15;62.85;;;;;;;-140.05;100.00;61859.38;5029353;28;20276;-61
2021/11/15 05:47:30;;;;;;;109.75;66.63;;;;;;;-140.05;100.00;61859.38;5029871;28;20232;-62
2021/11/15 05:49:57;;;;;;;125.80;72.18;;;;;;;-140.05;100.00;61859.38;5029847;28;20217;-60
2021/11/15 05:52:24;;;;;;;192.52;116.30;;;;;;;-140.05;100.00;61859.38;5029534;28;20264;-60
2021/11/15 05:54:52;;;;;;;131.75;76.68;;;;;;;-140.05;100.00;61859.38;5030090;28;20201;-58
2021/11/15 05:57:19;;;;;;;149.20;86.05;;;;;;;-140.05;100.00;61859.38;5029393;28;20280;-60
2021/11/15 05:59:47;;;;;;;154.57;89.88;;;;;;;-140.05;100.00;61859.38;5030181;28;20620;-60
2021/11/15 06:02:15;;;;;;;176.02;97.95;;;;;;;-140.05;100.00;61859.38;5029410;28;20271;-60
2021/11/15 06:04:43;;;;;;;153.75;86.68;;;;;;;-140.05;100.00;61859.38;5030623;28;20197;-60
2021/11/15 06:07:10;;;;;;;150.35;87.18;;;;;;;-140.05;100.00;61859.38;5029926;28;20342;-60
2021/11/15 06:09:37;;;;;;;141.18;84.78;;;;;;;-140.05;100.00;61859.38;5030009;28;20197;-61
2021/11/15 06:12:04;;;;;;;140.50;84.10;;;;;;;-140.05;100.00;61859.38;5029652;28;20193;-60
2021/11/15 06:14:31;;;;;;;131.75;75.35;;;;;;;-140.05;100.00;61859.38;5029546;28;20197;-60
2021/11/15 06:16:58;;;;;;;119.20;71.13;;;;;;;-140.05;100.00;61859.38;5028890;28;20263;-59
2021/11/15 06:19:25;;;;;;;126.43;72.25;;;;;;;-140.05;100.00;61859.38;5030516;28;20563;-60
2021/11/15 06:21:53;;;;;;;125.55;75.00;;;;;;;-140.05;100.00;61859.38;5029540;28;20201;-60
2021/11/15 06:24:20;;;;;;;114.80;66.45;;;;;;;-140.05;100.00;61859.38;5030192;28;20193;-60
2021/11/15 06:26:47;;;;;;;114.00;64.57;;;;;;;-140.05;100.00;61859.38;5028640;28;20221;-59
2021/11/15 06:29:14;;;;;;;97.13;58.92;;;;;;;-140.05;100.00;61859.38;5019002;28;20197;-59
2021/11/15 06:31:41;;;;;;;98.65;55.72;;;;;;;-140.05;100.00;61859.38;5024438;28;20213;-59
2021/11/15 06:34:08;;;;;;;96.68;53.42;;;;;;;-140.05;100.00;61859.38;5028427;28;20189;-61
2021/11/15 06:36:35;;;;;;;91.70;51.45;;;;;;;-140.05;100.00;61859.38;5027575;28;20207;-61
2021/11/15 06:39:03;;;;;;;90.55;52.08;;;;;;;-140.05;100.00;61859.38;5026508;28;20197;-61
2021/11/15 06:41:31;;;;;;;89.60;48.50;;;;;;;-140.05;100.00;61859.38;5027649;28;20209;-60
2021/11/15 06:43:58;;;;;;;84.32;47.42;;;;;;;-140.05;100.00;61859.38;5028019;28;20687;-59
2021/11/15 06:46:27;;;;;;;88.10;48.88;;;;;;;-140.05;100.00;61859.38;5028979;28;20244;-60
2021/11/15 06:48:55;;;;;;;85.35;45.88;;;;;;;-140.05;100.00;61859.38;5029655;28;20209;-61
2021/11/15 06:51:36;;;;;;;91.15;47.45;;;;;;;-140.05;100.00;61859.38;5029232;28;20231;-61
2021/11/15 06:54:03;;;;;;;74.97;43.50;;;;;;;-140.05;100.00;61859.38;5029138;28;20200;-59
2021/11/15 06:56:30;;;;;;;73.25;39.88;;;;;;;-140.05;100.00;61859.38;5028877;28;20574;-60
2021/11/15 06:58:57;;;;;;;75.55;39.92;;;;;;;-140.05;100.00;61859.38;5029132;28;20722;-61
2021/11/15 07:01:24;;;;;;;70.43;40.20;;;;;;;-140.05;100.00;61859.38;5029802;28;20204;-59
2021/11/15 07:03:53;;;;;;;74.65;41.35;;;;;;;-140.05;100.00;61859.38;5028965;28;20832;-61
2021/11/15 07:06:20;;;;;;;68.90;38.77;;;;;;;-140.05;100.00;61859.38;5029272;28;20616;-60
2021/11/15 07:08:48;;;;;;;70.00;39.97;;;;;;;-140.05;100.00;61859.38;5028697;28;20585;-61
2021/11/15 07:11:15;;;;;;;71.68;41.10;;;;;;;-140.05;100.00;61859.38;5029185;28;20934;-61
2021/11/15 07:13:43;;;;;;;66.50;39.67;;;;;;;-140.05;100.00;61859.38;5028541;28;20284;-60
2021/11/15 07:16:10;;;;;;;66.97;39.60;;;;;;;-140.05;100.00;61859.38;5028673;28;20455;-59
2021/11/15 07:18:37;;;;;;;66.03;39.85;;;;;;;-140.05;100.00;61859.38;5028827;28;20447;-60
2021/11/15 07:21:04;;;;;;;65.27;39.90;;;;;;;-140.05;100.00;61859.38;5029376;28;20757;-61
2021/11/15 07:23:31;;;;;;;70.90;42.20;;;;;;;-140.05;100.00;61859.38;5028674;28;20435;-61
2021/11/15 07:25:58;;;;;;;63.07;39.07;;;;;;;-140.05;100.00;61859.38;5029380;28;20887;-60
2021/11/15 07:28:26;;;;;;;69.72;43.47;;;;;;;-140.05;100.00;61859.38;5027916;28;20486;-59
2021/11/15 07:30:56;;;;;;;66.83;40.90;;;;;;;-140.05;100.00;61859.38;5029286;28;20581;-60
2021/11/15 07:33:24;;;;;;;66.57;42.07;;;;;;;-140.05;100.00;61859.38;5028311;28;20448;-60
2021/11/15 07:35:51;;;;;;;77.50;44.00;;;;;;;-140.05;100.00;61859.38;5029014;28;20447;-61
2021/11/15 07:38:19;;;;;;;70.20;41.80;;;;;;;-140.05;100.00;61859.38;5028571;28;20866;-61
2021/11/15 07:40:47;;;;;;;71.00;41.03;;;;;;;-140.05;100.00;61859.38;5028941;28;20546;-61
2021/11/15 07:43:15;;;;;;;64.27;39.13;;;;;;;-140.05;100.00;61859.38;5028296;28;20443;-61
2021/11/15 07:45:43;;;;;;;68.60;41.80;;;;;;;-140.05;100.00;61859.38;5028599;28;20530;-59
2021/11/15 07:48:10;;;;;;;78.33;42.63;;;;;;;-140.05;100.00;61859.38;5028327;28;20591;-60
2021/11/15 07:50:38;;;;;;;72.00;43.50;;;;;;;-140.05;100.00;61859.38;5029040;28;20462;-60
2021/11/15 07:53:06;;;;;;;77.97;48.30;;;;;;;-140.05;100.00;61859.38;5031809;28;20439;-61
2021/11/15 07:55:34;;;;;;;83.20;48.87;;;;;;;-140.05;100.00;61859.38;5032675;28;20451;-61
2021/11/15 07:58:04;;;;;;;77.70;48.73;;;;;;;-140.05;100.00;61859.38;5031984;28;20828;-60
2021/11/15 08:00:31;;;;;;;78.53;47.53;;;;;;;-140.05;100.00;61859.38;5032875;28;20451;-60
2021/11/15 08:02:59;;;;;;;77.13;45.23;;;;;;;-140.05;100.00;61859.38;5031707;28;20447;-62
2021/11/15 08:05:26;;;;;;;66.20;41.80;;;;;;;-140.05;100.00;61859.38;5032331;28;20435;-61
2021/11/15 08:07:53;;;;;;;67.87;43.37;;;;;;;-140.05;100.00;61859.38;5030596;28;20498;-60
2021/11/15 08:10:21;;;;;;;73.67;43.53;;;;;;;-140.05;100.00;61859.38;5019522;28;20455;-61
2021/11/15 08:12:51;;;;;;;68.30;42.47;;;;;;;-140.05;100.00;61859.38;5031834;28;20828;-61
2021/11/15 08:15:20;;;;;;;70.10;43.37;;;;;;;-140.05;100.00;61859.38;5031989;28;20977;-59
2021/11/15 08:17:51;;;;;;;69.07;43.87;;;;;;;-140.05;100.00;61859.38;5031565;28;20490;-60
2021/11/15 08:20:24;;;;;;;66.80;44.20;;;;;;;-140.05;100.00;61859.38;5032303;28;20446;-60
2021/11/15 08:23:03;;;;;;;67.50;42.07;;;;;;;-140.05;100.00;61859.38;5032122;28;20447;-60
2021/11/15 08:25:42;;;;;;;72.43;41.20;;;;;;;-140.05;100.00;61859.38;5031711;28;20479;-60
2021/11/15 08:28:09;;;;;;;62.73;40.43;;;;;;;-140.05;100.00;61859.38;5031380;28;20475;-61
2021/11/15 08:30:38;;;;;;;65.40;41.97;;;;;;;-140.05;100.00;61859.38;5031806;28;20443;-60
2021/11/15 08:33:05;;;;;;;64.67;41.03;;;;;;;-140.05;100.00;61859.38;5031155;28;20444;-61
2021/11/15 08:35:32;;;;;;;63.17;39.47;;;;;;;-140.05;100.00;61859.38;5031606;28;20443;-60
2021/11/15 08:38:05;;;;;;;65.87;40.90;;;;;;;-140.05;100.00;61859.38;5031307;28;20439;-61
2021/11/15 08:40:32;;;;;;;69.33;41.97;;;;;;;-140.05;100.00;61859.38;5031319;28;20513;-61
2021/11/15 08:42:59;;;;;;;61.00;41.00;;;;;;;-140.05;100.00;61859.38;5021614;28;20433;-59
2021/11/15 08:45:26;;;;;;;64.50;42.23;;;;;;;-140.05;100.00;61859.38;5027366;28;20474;-60
2021/11/15 08:47:53;;;;;;;72.93;42.70;;;;;;;-140.05;100.00;61859.38;5023455;28;20472;-61
2021/11/15 08:50:21;;;;;;;61.10;38.03;;;;;;;-140.05;100.00;61859.38;5026014;28;20542;-61
2021/11/15 08:52:47;;;;;;;58.90;38.20;;;;;;;-140.05;100.00;61859.38;5027232;28;20456;-60
2021/11/15 08:55:14;;;;;;;60.63;35.83;;;;;;;-140.05;100.00;61859.38;5031638;28;20470;-60
2021/11/15 08:57:42;;;;;;;58.13;37.13;;;;;;;-140.05;100.00;61859.38;5031465;28;20451;-60
2021/11/15 09:00:09;;;;;;;55.70;36.97;;;;;;;-140.05;100.00;61859.38;5032719;28;20463;-61
2021/11/15 09:02:37;;;;;;;51.87;36.33;;;;;;;-140.05;100.00;61859.38;5031737;28;20505;-60
2021/11/15 09:05:04;;;;;;;51.43;34.63;;;;;;;-140.05;100.00;61859.38;5031441;28;20436;-61
2021/11/15 09:07:36;;;;;;;50.70;35.03;;;;;;;-140.05;100.00;61859.38;5031121;28;20502;-61
2021/11/15 09:10:09;;;;;;;54.50;35.53;;;;;;;-140.05;100.00;61859.38;5026663;28;20950;-59
2021/11/15 09:12:38;;;;;;;49.37;33.67;;;;;;;-140.05;100.00;61859.38;5022152;28;20455;-60
2021/11/15 09:15:09;;;;;;;39.60;28.93;;;;;;;-140.05;100.00;61859.38;5030985;28;20436;-63
2021/11/15 09:17:38;;;;;;;39.50;26.97;;;;;;;-140.05;100.00;61859.38;5030951;28;20847;-61
2021/11/15 09:20:08;;;;;;;36.77;28.57;;;;;;;-140.05;100.00;61859.38;5017620;28;20446;-60
2021/11/15 09:22:35;;;;;;;42.23;28.57;;;;;;;-140.05;100.00;61859.38;5021670;28;20440;-61
2021/11/15 09:25:05;;;;;;;37.63;27.40;;;;;;;-140.05;100.00;61859.38;5026979;28;20450;-60
2021/11/15 09:27:32;;;;;;;38.20;28.77;;;;;;;-140.05;100.00;61859.38;5030589;28;20468;-60
2021/11/15 09:29:59;;;;;;;32.10;22.97;;;;;;;-140.05;100.00;61859.38;5030860;28;20967;-60
2021/11/15 09:32:26;;;;;;;35.23;25.73;;;;;;;-140.05;100.00;61859.38;5030649;28;20522;-60
2021/11/15 09:34:53;;;;;;;39.20;26.83;;;;;;;-140.05;100.00;61859.38;5030389;28;20454;-61
2021/11/15 09:37:20;;;;;;;36.77;27.03;;;;;;;-140.05;100.00;61859.38;5030326;28;20790;-60
2021/11/15 09:39:50;;;;;;;37.60;26.60;;;;;;;-140.05;100.00;61859.38;5030964;28;20546;-60
2021/11/15 09:42:18;;;;;;;43.67;27.83;;;;;;;-140.05;100.00;61859.38;5026331;28;20448;-65
2021/11/15 09:44:45;;;;;;;38.97;27.93;;;;;;;-140.05;100.00;61859.38;5021089;28;20439;-60
2021/11/15 09:47:13;;;;;;;32.13;22.00;;;;;;;-140.05;100.00;61859.38;5029074;28;20868;-60
2021/11/15 09:49:40;;;;;;;32.80;21.67;;;;;;;-140.05;100.00;61859.38;5022159;28;20448;-61
2021/11/15 09:52:09;;;;;;;30.67;20.57;;;;;;;-140.05;100.00;61859.38;5024808;28;20447;-60
2021/11/15 09:54:39;;;;;;;25.23;18.13;;;;;;;-140.05;100.00;61859.38;5030192;28;20440;-60
2021/11/15 09:57:26;;;;;;;25.20;19.00;;;;;;;-140.05;100.00;61859.38;5030396;28;20448;-60
2021/11/15 09:59:53;;;;;;;27.80;19.87;;;;;;;-140.05;100.00;61859.38;5030077;28;20563;-61
2021/11/15 10:02:20;;;;;;;29.40;20.83;;;;;;;-140.05;100.00;61859.38;5030143;28;20579;-60
2021/11/15 10:04:47;;;;;;;25.83;18.77;;;;;;;-140.05;100.00;61859.38;5030717;28;21011;-60
2021/11/15 10:07:15;;;;;;;23.03;17.07;;;;;;;-140.05;100.00;61859.38;5029902;28;20448;-60
2021/11/15 10:09:42;;;;;;;23.40;17.60;;;;;;;-140.05;100.00;61859.38;5030024;28;20467;-60
2021/11/15 10:12:14;;;;;;;19.77;15.90;;;;;;;-140.05;100.00;61859.38;5029720;28;20454;-61
2021/11/15 10:15:02;;;;;;;20.20;16.60;;;;;;;-140.05;100.00;61859.38;5029116;28;20989;-62
2021/11/15 10:17:41;;;;;;;23.03;15.57;;;;;;;-140.05;100.00;61859.38;5030157;28;20440;-61
2021/11/15 10:20:08;;;;;;;19.53;16.43;;;;;;;-140.05;100.00;61859.38;5029726;28;20558;-60
2021/11/15 10:22:35;;;;;;;25.60;17.77;;;;;;;-140.05;100.00;61859.38;5029401;28;20444;-59
2021/11/15 10:25:04;;;;;;;23.87;18.30;;;;;;;-140.05;100.00;61859.38;5016346;28;20828;-61
2021/11/15 10:27:32;;;;;;;21.50;15.23;;;;;;;-140.05;100.00;61859.38;5030080;28;20468;-60
2021/11/15 10:30:09;;;;;;;19.60;16.47;;;;;;;-140.05;100.00;61859.38;5030055;28;20904;-61
2021/11/15 10:32:42;;;;;;;27.83;20.70;;;;;;;-140.05;100.00;61859.38;5028692;28;20508;-60
2021/11/15 10:35:10;;;;;;;24.43;18.33;;;;;;;-140.05;100.00;61859.38;5029498;28;20443;-60
2021/11/15 10:37:40;;;;;;;46.77;31.80;;;;;;;-140.05;100.00;61859.38;5022231;28;20441;-60
2021/11/15 10:40:15;;;;;;;24.80;18.23;;;;;;;-140.05;100.00;61859.38;5023536;28;20788;-60
2021/11/15 10:42:49;;;;;;;29.60;20.30;;;;;;;-140.05;100.00;61859.38;5015657;28;20470;-60
2021/11/15 10:45:17;;;;;;;21.03;15.53;;;;;;;-140.05;100.00;61859.38;5029695;28;20452;-60
2021/11/15 10:47:54;;;;;;;20.20;16.27;;;;;;;-140.05;100.00;61859.38;5029129;28;21035;-60
2021/11/15 10:50:55;;;;;;;19.63;16.03;;;;;;;-140.05;100.00;61859.38;5029488;28;20904;-60
2021/11/15 10:53:37;;;;;;;19.50;16.40;;;;;;;-140.05;100.00;61859.38;5027840;28;20826;-59
2021/11/15 10:56:04;;;;;;;24.97;16.50;;;;;;;-140.05;100.00;61859.38;5029282;28;20852;-60
2021/11/15 10:58:41;;;;;;;21.27;15.60;;;;;;;-140.05;100.00;61859.38;5029085;28;20447;-60